createdAt,value
2023-05-21T00:01:50.159Z,7.60
2023-05-21T00:04:18.085Z,8.35
2023-05-21T00:06:46.281Z,7.93
2023-05-21T00:09:15.917Z,7.88
2023-05-21T00:11:47.115Z,10.52
2023-05-21T00:14:15.735Z,8.57
2023-05-21T00:16:45.249Z,7.50
2023-05-21T00:19:13.971Z,9.77
2023-05-21T00:21:42.344Z,4.88
2023-05-21T00:24:10.371Z,6.63
2023-05-21T00:26:38.698Z,7.70
2023-05-21T00:29:07.883Z,9.57
2023-05-21T00:31:37.393Z,6.47
2023-05-21T00:34:07.569Z,8.57
2023-05-21T00:36:46.429Z,7.63
2023-05-21T00:39:15.809Z,9.98
2023-05-21T00:41:43.829Z,7.32
2023-05-21T00:44:14.614Z,8.40
2023-05-21T00:46:44.834Z,7.50
2023-05-21T00:49:14.360Z,8.15
2023-05-21T00:51:42.476Z,10.52
2023-05-21T00:54:10.670Z,10.90
2023-05-21T00:56:39.093Z,6.40
2023-05-21T00:59:08.328Z,7.30
2023-05-21T01:01:40.348Z,10.52
2023-05-21T01:04:10.538Z,6.75
2023-05-21T01:06:40.157Z,5.18
2023-05-21T01:09:10.276Z,9.13
2023-05-21T01:11:48.420Z,11.43
2023-05-21T01:14:17.466Z,11.30
2023-05-21T01:16:52.766Z,5.72
2023-05-21T01:19:41.975Z,5.90
2023-05-21T01:22:14.771Z,7.57
2023-05-21T01:27:17.929Z,8.68
2023-05-21T01:29:46.558Z,7.28
2023-05-21T01:32:26.010Z,11.10
2023-05-21T01:35:03.429Z,10.35
2023-05-21T01:37:52.953Z,7.22
2023-05-21T01:40:40.622Z,7.20
2023-05-21T01:43:12.012Z,10.32
2023-05-21T01:45:41.583Z,8.07
2023-05-21T01:48:11.788Z,8.07
2023-05-21T01:50:40.892Z,7.90
2023-05-21T01:53:11.792Z,9.88
2023-05-21T01:55:42.434Z,7.32
2023-05-21T01:58:11.907Z,7.25
2023-05-21T02:00:45.679Z,9.18
2023-05-21T02:03:17.649Z,7.13
2023-05-21T02:05:47.422Z,12.10
2023-05-21T02:08:16.225Z,8.43
2023-05-21T02:10:45.650Z,7.68
2023-05-21T02:13:16.017Z,10.70
2023-05-21T02:15:45.367Z,6.78
2023-05-21T02:18:17.505Z,9.57
2023-05-21T02:20:46.759Z,7.65
2023-05-21T02:23:17.978Z,7.60
2023-05-21T02:25:46.413Z,11.32
2023-05-21T02:28:16.048Z,8.05
2023-05-21T02:30:44.532Z,7.15
2023-05-21T02:33:16.316Z,9.50
2023-05-21T02:35:45.363Z,11.95
2023-05-21T02:38:14.731Z,10.02
2023-05-21T02:40:43.378Z,8.80
2023-05-21T02:43:16.044Z,10.93
2023-05-21T02:45:44.926Z,6.72
2023-05-21T02:48:15.751Z,8.18
2023-05-21T02:50:51.766Z,8.05
2023-05-21T02:53:20.521Z,7.80
2023-05-21T02:55:51.042Z,10.13
2023-05-21T02:58:23.677Z,8.90
2023-05-21T03:00:53.161Z,10.95
2023-05-21T03:03:22.553Z,7.18
2023-05-21T03:05:51.355Z,8.35
2023-05-21T03:08:20.811Z,9.80
2023-05-21T03:10:50.204Z,7.68
2023-05-21T03:13:18.620Z,8.65
2023-05-21T03:15:46.866Z,6.85
2023-05-21T03:18:15.467Z,7.05
2023-05-21T03:20:45.431Z,15.27
2023-05-21T03:23:16.580Z,8.57
2023-05-21T03:25:47.502Z,11.35
2023-05-21T03:28:17.913Z,7.15
2023-05-21T03:30:55.604Z,9.60
2023-05-21T03:33:49.551Z,12.43
2023-05-21T03:36:27.123Z,7.20
2023-05-21T03:39:00.115Z,6.70
2023-05-21T03:41:28.583Z,15.38
2023-05-21T03:44:04.835Z,6.88
2023-05-21T03:46:46.992Z,7.75
2023-05-21T03:49:28.116Z,7.05
2023-05-21T03:51:59.544Z,7.60
2023-05-21T03:54:28.526Z,7.80
2023-05-21T03:57:01.585Z,6.85
2023-05-21T03:59:30.818Z,7.68
2023-05-21T04:02:00.367Z,6.15
2023-05-21T04:05:02.425Z,8.40
2023-05-21T04:07:31.320Z,10.90
2023-05-21T04:09:59.750Z,7.82
2023-05-21T04:12:30.234Z,6.10
2023-05-21T04:14:59.486Z,10.63
2023-05-21T04:17:28.731Z,7.53
2023-05-21T04:19:57.497Z,10.65
2023-05-21T04:22:28.580Z,7.15
2023-05-21T04:24:57.390Z,5.90
2023-05-21T04:27:48.522Z,4.88
2023-05-21T04:30:17.064Z,7.05
2023-05-21T04:37:58.893Z,7.80
2023-05-21T04:40:30.438Z,13.00
2023-05-21T04:43:02.298Z,10.30
2023-05-21T04:45:31.046Z,9.80
2023-05-21T04:48:05.993Z,7.82
2023-05-21T04:50:35.819Z,4.75
2023-05-21T04:53:04.837Z,8.05
2023-05-21T04:55:39.982Z,9.73
2023-05-21T04:58:28.740Z,7.95
2023-05-21T05:00:58.149Z,8.35
2023-05-21T05:03:27.133Z,6.88
2023-05-21T05:05:55.869Z,5.97
2023-05-21T05:08:23.779Z,8.05
2023-05-21T05:11:43.047Z,8.45
2023-05-21T05:14:11.689Z,14.40
2023-05-21T05:16:42.862Z,8.80
2023-05-21T05:19:17.870Z,11.50
2023-05-21T05:21:46.547Z,9.68
2023-05-21T05:24:16.592Z,9.98
2023-05-21T05:26:47.697Z,6.57
2023-05-21T05:29:16.382Z,5.55
2023-05-21T05:32:17.336Z,8.68
2023-05-21T05:34:47.412Z,11.10
2023-05-21T05:37:17.543Z,5.57
2023-05-21T05:39:55.286Z,8.70
2023-05-21T05:42:23.613Z,6.85
2023-05-21T05:45:05.306Z,9.27
2023-05-21T05:47:36.972Z,9.93
2023-05-21T05:50:18.704Z,8.20
2023-05-21T05:52:49.726Z,8.68
2023-05-21T05:55:19.642Z,11.00
2023-05-21T05:57:49.420Z,11.32
2023-05-21T06:00:20.369Z,12.82
2023-05-21T06:02:53.271Z,9.95
2023-05-21T06:05:21.677Z,10.07
2023-05-21T06:07:51.154Z,13.93
2023-05-21T06:10:21.317Z,7.47
2023-05-21T06:12:49.416Z,7.43
2023-05-21T06:15:23.830Z,11.93
2023-05-21T06:17:52.597Z,7.65
2023-05-21T06:20:24.227Z,11.90
2023-05-21T06:23:59.795Z,12.20
2023-05-21T06:29:43.819Z,8.63
2023-05-21T06:32:23.873Z,10.10
2023-05-21T06:34:57.066Z,10.02
2023-05-21T06:37:27.337Z,7.88
2023-05-21T06:39:59.050Z,7.78
2023-05-21T06:42:28.271Z,8.68
2023-05-21T06:45:34.252Z,11.02
2023-05-21T06:48:10.403Z,9.85
2023-05-21T06:50:46.041Z,12.20
2023-05-21T06:53:48.705Z,10.27
2023-05-21T06:56:19.806Z,11.95
2023-05-21T06:58:56.905Z,13.13
2023-05-21T07:01:25.739Z,11.82
2023-05-21T07:03:54.641Z,14.80
2023-05-21T07:06:28.487Z,15.13
2023-05-21T07:08:57.744Z,6.07
2023-05-21T07:11:30.351Z,6.72
2023-05-21T07:14:02.167Z,13.35
2023-05-21T07:17:08.479Z,13.20
2023-05-21T07:19:39.098Z,8.77
2023-05-21T07:22:17.517Z,10.63
2023-05-21T07:25:19.635Z,14.70
2023-05-21T07:27:47.887Z,11.23
2023-05-21T07:30:16.420Z,6.68
2023-05-21T07:32:54.873Z,12.20
2023-05-21T07:35:26.581Z,7.45
2023-05-21T07:38:01.074Z,9.40
2023-05-21T07:40:32.013Z,9.90
2023-05-21T07:43:02.720Z,10.30
2023-05-21T07:45:32.822Z,9.48
2023-05-21T07:48:03.024Z,10.05
2023-05-21T07:51:07.415Z,8.45
2023-05-21T07:53:38.983Z,7.05
2023-05-21T07:56:11.148Z,6.63
2023-05-21T07:58:41.057Z,8.23
2023-05-21T08:01:10.901Z,16.58
2023-05-21T08:03:41.097Z,5.90
2023-05-21T08:06:10.496Z,9.73
2023-05-21T08:08:39.927Z,8.55
2023-05-21T08:11:10.277Z,9.50
2023-05-21T08:13:42.560Z,9.73
2023-05-21T08:16:13.867Z,9.32
2023-05-21T08:18:42.936Z,9.90
2023-05-21T08:21:13.337Z,7.13
2023-05-21T08:23:41.693Z,9.80
2023-05-21T08:26:09.994Z,7.93
2023-05-21T08:28:41.765Z,8.30
2023-05-21T08:31:09.969Z,11.43
2023-05-21T08:33:39.107Z,11.40
2023-05-21T08:36:18.539Z,11.77
2023-05-21T08:38:59.839Z,5.72
2023-05-21T08:41:39.235Z,9.57
2023-05-21T08:44:22.724Z,6.93
2023-05-21T08:46:53.890Z,7.60
2023-05-21T08:49:27.002Z,10.90
2023-05-21T08:51:59.696Z,9.63
2023-05-21T08:54:29.109Z,5.10
2023-05-21T08:56:59.006Z,7.53
2023-05-21T08:59:29.205Z,10.18
2023-05-21T09:02:05.689Z,11.43
2023-05-21T09:04:39.397Z,8.75
2023-05-21T09:07:10.181Z,14.85
2023-05-21T09:09:58.268Z,9.07
2023-05-21T09:12:27.116Z,6.00
2023-05-21T09:14:58.611Z,8.15
2023-05-21T09:20:25.301Z,6.43
2023-05-21T09:23:03.768Z,5.63
2023-05-21T09:25:34.392Z,14.35
2023-05-21T09:28:14.772Z,7.90
2023-05-21T09:30:49.719Z,9.55
2023-05-21T09:33:27.420Z,9.02
2023-05-21T09:35:56.954Z,11.57
2023-05-21T09:38:27.422Z,9.77
2023-05-21T09:40:58.620Z,6.18
2023-05-21T09:43:28.099Z,10.52
2023-05-21T09:45:58.996Z,9.20
2023-05-21T09:48:42.318Z,7.80
2023-05-21T09:51:21.792Z,10.68
2023-05-21T09:54:02.504Z,5.60
2023-05-21T09:56:32.606Z,20.52
2023-05-21T09:59:04.725Z,9.90
2023-05-21T10:01:36.306Z,6.75
2023-05-21T10:04:09.454Z,8.95
2023-05-21T10:06:41.408Z,6.07
2023-05-21T10:09:13.140Z,8.77
2023-05-21T10:11:48.906Z,19.13
2023-05-21T10:14:26.300Z,11.35
2023-05-21T10:16:54.954Z,12.55
2023-05-21T10:19:23.825Z,8.95
2023-05-21T10:22:09.313Z,11.05
2023-05-21T10:24:41.302Z,6.20
2023-05-21T10:27:09.375Z,8.77
2023-05-21T10:29:38.209Z,6.05
2023-05-21T10:32:06.721Z,5.00
2023-05-21T10:34:34.965Z,5.28
2023-05-21T10:37:03.725Z,10.82
2023-05-21T10:39:35.616Z,13.20
2023-05-21T10:42:12.924Z,9.82
2023-05-21T10:45:27.547Z,9.55
2023-05-21T10:48:10.405Z,8.63
2023-05-21T10:51:08.426Z,8.15
2023-05-21T10:53:53.429Z,9.77
2023-05-21T10:56:43.487Z,11.45
2023-05-21T10:59:22.484Z,10.35
2023-05-21T11:02:11.417Z,10.55
2023-05-21T11:04:42.142Z,10.00
2023-05-21T11:07:13.669Z,8.50
2023-05-21T11:09:42.339Z,10.25
2023-05-21T11:12:10.633Z,7.38
2023-05-21T11:14:45.732Z,9.90
2023-05-21T11:17:16.317Z,7.43
2023-05-21T11:19:50.059Z,10.23
2023-05-21T11:22:24.136Z,5.70
2023-05-21T11:24:53.281Z,8.85
2023-05-21T11:27:37.652Z,9.18
2023-05-21T11:30:17.644Z,11.80
2023-05-21T11:33:07.776Z,7.50
2023-05-21T11:35:54.592Z,7.13
2023-05-21T11:38:23.025Z,6.03
2023-05-21T11:41:18.193Z,5.43
2023-05-21T11:43:46.908Z,12.27
2023-05-21T11:46:15.020Z,5.80
2023-05-21T11:48:44.055Z,6.95
2023-05-21T11:51:14.048Z,9.05
2023-05-21T11:53:44.288Z,8.45
2023-05-21T11:56:14.090Z,6.93
2023-05-21T11:58:44.733Z,8.43
2023-05-21T12:01:24.788Z,8.15
2023-05-21T12:03:53.314Z,6.10
2023-05-21T12:06:27.099Z,10.23
2023-05-21T12:08:58.578Z,8.57
2023-05-21T12:11:27.776Z,10.90
2023-05-21T12:13:59.161Z,9.20
2023-05-21T12:16:27.385Z,8.52
2023-05-21T12:18:55.348Z,10.77
2023-05-21T12:21:24.542Z,8.70
2023-05-21T12:23:52.665Z,10.27
2023-05-21T12:26:22.133Z,8.80
2023-05-21T12:28:50.405Z,5.88
2023-05-21T12:31:18.804Z,11.27
2023-05-21T12:33:50.344Z,7.15
2023-05-21T12:36:23.688Z,7.55
2023-05-21T12:38:52.300Z,5.68
2023-05-21T12:41:22.997Z,6.57
2023-05-21T12:43:51.604Z,6.68
2023-05-21T12:46:19.783Z,8.35
2023-05-21T12:48:55.544Z,9.75
2023-05-21T12:51:23.696Z,5.82
2023-05-21T12:53:51.966Z,7.50
2023-05-21T12:56:20.240Z,7.18
2023-05-21T12:58:50.676Z,10.98
2023-05-21T13:01:21.583Z,13.77
2023-05-21T13:03:53.633Z,6.63
2023-05-21T13:06:23.280Z,9.95
2023-05-21T13:08:51.452Z,8.00
2023-05-21T13:11:20.029Z,13.10
2023-05-21T13:13:48.155Z,6.18
2023-05-21T13:16:16.594Z,8.55
2023-05-21T13:18:45.364Z,16.27
2023-05-21T13:21:13.624Z,22.17
2023-05-21T13:23:41.823Z,16.75
2023-05-21T13:26:11.163Z,17.15
2023-05-21T13:28:42.373Z,14.77
2023-05-21T13:31:12.310Z,16.13
2023-05-21T13:33:42.955Z,15.63
2023-05-21T13:36:11.580Z,10.00
2023-05-21T13:38:39.904Z,11.45
2023-05-21T13:41:08.603Z,16.77
2023-05-21T13:43:37.358Z,14.75
2023-05-21T13:46:05.543Z,11.77
2023-05-21T13:48:36.125Z,10.95
2023-05-21T13:51:05.447Z,10.60
2023-05-21T13:53:34.219Z,13.40
2023-05-21T13:56:03.421Z,10.57
2023-05-21T13:58:34.809Z,15.23
2023-05-21T14:01:06.526Z,16.20
2023-05-21T14:03:47.354Z,12.95
2023-05-21T14:06:32.872Z,14.73
2023-05-21T14:09:02.425Z,13.10
2023-05-21T14:11:32.298Z,14.68
2023-05-21T14:14:29.864Z,13.15
2023-05-21T14:16:59.939Z,16.98
2023-05-21T14:19:32.179Z,13.82
2023-05-21T14:22:03.908Z,17.60
2023-05-21T14:24:31.896Z,16.08
2023-05-21T14:27:05.149Z,23.13
2023-05-21T14:29:46.640Z,22.50
2023-05-21T14:35:54.616Z,46.35
2023-05-21T14:38:24.607Z,30.48
2023-05-21T14:40:54.572Z,33.78
2023-05-21T14:43:25.330Z,31.48
2023-05-21T14:46:10.301Z,27.83
2023-05-21T14:48:55.161Z,29.98
2023-05-21T14:51:26.484Z,32.03
2023-05-21T14:53:56.551Z,33.42
2023-05-21T14:56:28.407Z,37.90
2023-05-21T14:59:06.923Z,39.13
2023-05-21T15:01:37.749Z,42.67
2023-05-21T15:04:09.170Z,57.47
2023-05-21T15:06:41.280Z,55.33
2023-05-21T15:09:09.775Z,52.55
2023-05-21T15:12:11.995Z,47.88
2023-05-21T15:14:42.494Z,40.25
2023-05-21T15:17:10.698Z,33.72
2023-05-21T15:19:48.476Z,30.48
2023-05-21T15:22:17.338Z,31.10
2023-05-21T15:24:48.185Z,28.42
2023-05-21T15:27:16.854Z,28.58
2023-05-21T15:29:50.558Z,54.90
2023-05-21T15:32:18.913Z,68.03
2023-05-21T15:34:47.988Z,65.55
2023-05-21T15:37:16.303Z,69.88
2023-05-21T15:39:45.789Z,46.90
2023-05-21T15:42:23.300Z,45.50
2023-05-21T15:44:53.091Z,43.03
2023-05-21T15:47:25.028Z,39.75
2023-05-21T15:49:54.572Z,27.50
2023-05-21T15:52:23.571Z,27.45
2023-05-21T15:54:51.780Z,25.52
2023-05-21T15:57:23.208Z,23.08
2023-05-21T15:59:52.700Z,17.15
2023-05-21T16:02:25.988Z,18.80
2023-05-21T16:04:55.717Z,31.92
2023-05-21T16:07:25.119Z,29.13
2023-05-21T16:09:53.548Z,44.75
2023-05-21T16:12:23.298Z,44.75
2023-05-21T16:14:53.570Z,52.38
2023-05-21T16:17:22.614Z,49.97
2023-05-21T16:19:50.624Z,52.35
2023-05-21T16:22:24.150Z,52.97
2023-05-21T16:25:07.026Z,53.03
2023-05-21T16:27:55.132Z,54.70
2023-05-21T16:30:23.263Z,56.40
2023-05-21T16:32:55.942Z,60.88
2023-05-21T16:35:24.709Z,57.28
2023-05-21T16:41:05.829Z,69.47
2023-05-21T16:43:40.511Z,59.20
2023-05-21T16:46:42.290Z,62.90
2023-05-21T16:49:10.308Z,65.25
2023-05-21T16:51:58.530Z,57.20
2023-05-21T16:54:27.390Z,59.45
2023-05-21T16:56:56.092Z,54.60
2023-05-21T16:59:27.424Z,52.28
2023-05-21T17:02:02.908Z,47.95
2023-05-21T17:04:46.396Z,43.75
2023-05-21T17:07:19.048Z,39.65
2023-05-21T17:09:47.245Z,47.08
2023-05-21T17:12:18.759Z,41.40
2023-05-21T17:14:50.450Z,34.92
2023-05-21T17:17:21.084Z,34.75
2023-05-21T17:19:50.390Z,38.78
2023-05-21T17:22:23.169Z,43.13
2023-05-21T17:24:55.914Z,34.38
2023-05-21T17:27:27.435Z,33.75
2023-05-21T17:29:57.916Z,34.42
2023-05-21T17:32:29.003Z,31.08
2023-05-21T17:35:02.405Z,35.20
2023-05-21T17:37:32.698Z,37.58
2023-05-21T17:42:43.328Z,35.72
2023-05-21T17:45:12.202Z,34.35
2023-05-21T17:47:42.667Z,32.65
2023-05-21T17:50:42.891Z,30.33
2023-05-21T17:53:15.546Z,29.10
2023-05-21T17:55:45.196Z,31.45
2023-05-21T17:58:17.480Z,32.15
2023-05-21T18:00:46.446Z,33.10
2023-05-21T18:03:21.022Z,32.42
2023-05-21T18:05:58.484Z,37.20
2023-05-21T18:08:30.567Z,31.38
2023-05-21T18:11:06.076Z,30.73
2023-05-21T18:13:44.532Z,29.35
2023-05-21T18:16:15.143Z,30.67
2023-05-21T18:19:19.828Z,28.92
2023-05-21T18:21:59.498Z,30.00
2023-05-21T18:24:43.386Z,24.02
2023-05-21T18:27:14.444Z,25.90
2023-05-21T18:29:54.445Z,21.85
2023-05-21T18:32:25.000Z,22.27
2023-05-21T18:34:53.095Z,23.13
2023-05-21T18:37:20.899Z,19.92
2023-05-21T18:39:49.469Z,20.27
2023-05-21T18:42:25.200Z,18.95
2023-05-21T18:44:54.538Z,21.38
2023-05-21T18:47:28.285Z,18.48
2023-05-21T18:50:00.854Z,18.80
2023-05-21T18:52:32.432Z,19.73
2023-05-21T18:55:00.450Z,18.17
2023-05-21T18:57:39.934Z,19.55
2023-05-21T19:00:13.209Z,18.48
2023-05-21T19:02:43.779Z,15.45
2023-05-21T19:05:22.671Z,15.95
2023-05-21T19:07:54.103Z,16.90
2023-05-21T19:10:33.827Z,16.60
2023-05-21T19:13:06.798Z,17.67
2023-05-21T19:15:49.768Z,22.98
2023-05-21T19:18:18.401Z,19.17
2023-05-21T19:20:49.589Z,15.32
2023-05-21T19:23:17.685Z,15.18
2023-05-21T19:25:48.868Z,15.55
2023-05-21T19:29:02.653Z,17.88
2023-05-21T19:31:40.240Z,15.80
2023-05-21T19:34:11.049Z,19.48
2023-05-21T19:36:52.160Z,15.43
2023-05-21T19:39:24.700Z,17.00
2023-05-21T19:41:53.213Z,23.08
2023-05-21T19:44:21.664Z,19.60
2023-05-21T19:46:56.213Z,21.05
2023-05-21T19:49:24.685Z,14.90
2023-05-21T19:52:28.053Z,17.52
2023-05-21T19:55:05.425Z,15.18
2023-05-21T19:57:44.461Z,18.05
2023-05-21T20:00:17.431Z,16.30
2023-05-21T20:02:50.810Z,16.50
2023-05-21T20:05:22.404Z,13.38
2023-05-21T20:07:50.402Z,13.00
2023-05-21T20:10:19.723Z,17.80
2023-05-21T20:12:48.516Z,16.10
2023-05-21T20:15:18.402Z,17.05
2023-05-21T20:17:50.525Z,22.73
2023-05-21T20:20:18.999Z,21.65
2023-05-21T20:22:47.012Z,15.27
2023-05-21T20:25:14.990Z,15.52
2023-05-21T20:27:43.266Z,16.70
2023-05-21T20:30:11.608Z,15.05
2023-05-21T20:32:41.390Z,15.45
2023-05-21T20:35:09.703Z,16.67
2023-05-21T20:37:37.770Z,12.43
2023-05-21T20:40:07.212Z,14.70
2023-05-21T20:42:36.734Z,11.07
2023-05-21T20:45:05.374Z,11.40
2023-05-21T20:47:34.109Z,14.57
2023-05-21T20:50:05.276Z,10.05
2023-05-21T20:52:34.131Z,13.88
2023-05-21T20:55:04.721Z,9.35
2023-05-21T20:57:34.667Z,7.28
2023-05-21T21:00:02.775Z,8.07
2023-05-21T21:02:32.848Z,8.02
2023-05-21T21:05:02.642Z,7.68
2023-05-21T21:07:32.309Z,9.20
2023-05-21T21:10:01.926Z,8.88
2023-05-21T21:12:31.442Z,7.72
2023-05-21T21:14:59.551Z,8.27
2023-05-21T21:17:28.799Z,6.65
2023-05-21T21:19:57.753Z,8.75
2023-05-21T21:22:32.747Z,7.20
2023-05-21T21:25:00.854Z,6.75
2023-05-21T21:27:29.670Z,11.70
2023-05-21T21:29:59.820Z,8.75
2023-05-21T21:32:31.856Z,6.25
2023-05-21T21:34:59.820Z,8.50
2023-05-21T21:37:29.563Z,8.52
2023-05-21T21:39:57.929Z,8.60
2023-05-21T21:42:25.936Z,8.32
2023-05-21T21:44:53.849Z,8.27
2023-05-21T21:47:21.928Z,8.27
2023-05-21T21:49:50.576Z,9.90
2023-05-21T21:52:19.129Z,9.70
2023-05-21T21:54:47.465Z,10.30
2023-05-21T21:57:15.778Z,13.38
2023-05-21T21:59:43.746Z,16.15
2023-05-21T22:02:11.763Z,14.05
2023-05-21T22:04:39.849Z,15.90
2023-05-21T22:07:10.856Z,15.02
2023-05-21T22:09:38.795Z,13.43
2023-05-21T22:12:07.883Z,18.85
2023-05-21T22:14:36.008Z,11.40
2023-05-21T22:17:08.532Z,12.00
2023-05-21T22:19:37.432Z,10.70
2023-05-21T22:22:05.930Z,8.90
2023-05-21T22:24:34.712Z,9.25
2023-05-21T22:27:03.366Z,8.30
2023-05-21T22:29:33.423Z,16.13
2023-05-21T22:32:01.464Z,13.30
2023-05-21T22:34:29.564Z,9.60
2023-05-21T22:37:01.280Z,9.88
2023-05-21T22:39:29.805Z,12.13
2023-05-21T22:41:59.793Z,7.82
2023-05-21T22:44:27.933Z,8.50
2023-05-21T22:46:56.744Z,8.95
2023-05-21T22:49:25.111Z,8.27
2023-05-21T22:51:54.534Z,10.45
2023-05-21T22:54:23.999Z,11.10
2023-05-21T22:56:51.952Z,8.48
2023-05-21T22:59:19.945Z,9.15
2023-05-21T23:01:48.104Z,17.90
2023-05-21T23:04:16.389Z,10.13
2023-05-21T23:06:44.298Z,9.88
2023-05-21T23:09:13.112Z,9.75
2023-05-21T23:11:42.956Z,12.90
2023-05-21T23:14:10.965Z,12.77
2023-05-21T23:16:43.952Z,10.38
2023-05-21T23:19:12.369Z,12.98
2023-05-21T23:21:41.074Z,9.98
2023-05-21T23:24:10.074Z,9.35
2023-05-21T23:26:39.756Z,8.35
2023-05-21T23:29:08.121Z,9.90
2023-05-21T23:31:36.310Z,9.32
2023-05-21T23:34:04.995Z,11.38
2023-05-21T23:36:33.702Z,10.20
2023-05-21T23:39:01.830Z,11.60
2023-05-21T23:41:32.468Z,12.57
2023-05-21T23:44:01.942Z,13.40
2023-05-21T23:46:30.882Z,11.30
2023-05-21T23:48:59.033Z,10.38
2023-05-21T23:51:28.154Z,13.80
2023-05-21T23:53:56.402Z,9.02
2023-05-21T23:56:24.566Z,16.02
2023-05-21T23:58:53.004Z,11.93
